Time;durP1;ratioP1;P1;durP2;ratioP2;P2;SDS_P1;SDS_P2;PMS_P1;PMS_P2;Temp;Humidity;BMP_temperature;BMP_pressure;BME280_temperature;BME280_humidity;BME280_pressure;Samples;Min_cycle;Max_cycle;Signal;HPM_P1;HPM_P2
2022/02/26 00:03:30;;;;;;;6.75;3.22;;;;;;;4.94;68.91;101553.13;10310415;28;20054;-62
2022/02/26 00:08:32;;;;;;;5.22;2.63;;;;;;;5.01;68.55;101545.84;10320499;28;20056;-61
2022/02/26 00:13:33;;;;;;;7.45;3.95;;;;;;;5.09;68.46;101551.72;10319351;28;20805;-62
2022/02/26 00:18:35;;;;;;;6.10;3.88;;;;;;;5.14;68.10;101568.22;10315383;28;20050;-62
2022/02/26 00:23:37;;;;;;;12.20;4.68;;;;;;;5.16;68.52;101574.31;10316424;28;20126;-62
2022/02/26 00:28:38;;;;;;;8.77;4.00;;;;;;;5.21;68.35;101584.69;10313925;28;20149;-63
2022/02/26 00:33:39;;;;;;;8.43;4.20;;;;;;;5.39;68.00;101588.44;10321140;28;20080;-62
2022/02/26 00:38:41;;;;;;;5.90;3.70;;;;;;;5.30;67.74;101576.47;10311485;28;20053;-62
2022/02/26 00:43:42;;;;;;;13.70;4.82;;;;;;;5.43;68.04;101600.63;10311166;28;20049;-62
2022/02/26 00:54:04;;;;;;;7.72;3.88;;;;;;;5.32;68.14;101615.06;10312383;28;20045;-62
2022/02/26 00:59:05;;;;;;;7.28;5.65;;;;;;;5.32;68.30;101609.78;10314340;28;20052;-62
2022/02/26 01:04:08;;;;;;;7.10;4.05;;;;;;;5.43;68.18;101611.19;10312019;28;20058;-63
2022/02/26 01:09:09;;;;;;;10.30;4.95;;;;;;;5.26;68.65;101620.59;10311299;28;20070;-61
2022/02/26 01:14:11;;;;;;;11.98;4.25;;;;;;;5.29;69.38;101631.03;10315267;28;20060;-61
2022/02/26 01:19:12;;;;;;;7.30;5.18;;;;;;;5.17;68.82;101617.44;10320533;28;20509;-61
2022/02/26 01:24:14;;;;;;;11.05;5.35;;;;;;;5.23;69.17;101631.25;10314191;28;20056;-62
2022/02/26 01:29:15;;;;;;;10.38;5.60;;;;;;;5.19;69.05;101631.41;10319322;28;20141;-62
2022/02/26 01:34:17;;;;;;;8.90;4.60;;;;;;;5.10;68.54;101635.25;10318388;28;20133;-62
2022/02/26 01:39:23;;;;;;;12.07;4.93;;;;;;;5.03;69.33;101609.97;10311260;28;20057;-61
2022/02/26 01:44:25;;;;;;;9.10;4.68;;;;;;;5.11;68.80;101621.13;10313437;28;20168;-62
2022/02/26 01:49:27;;;;;;;10.35;4.70;;;;;;;5.12;68.31;101622.88;10310831;28;20054;-61
2022/02/26 01:54:30;;;;;;;10.05;4.93;;;;;;;5.19;68.53;101624.34;10310598;28;20061;-61
2022/02/26 01:59:33;;;;;;;7.47;4.37;;;;;;;5.37;67.96;101621.97;10315344;28;20058;-62
2022/02/26 02:04:35;;;;;;;9.45;4.32;;;;;;;5.42;67.06;101641.13;10313527;28;20076;-61
2022/02/26 02:09:36;;;;;;;7.88;4.55;;;;;;;5.32;67.12;101630.06;10312726;28;20058;-62
2022/02/26 02:14:38;;;;;;;10.57;4.68;;;;;;;5.40;67.07;101642.97;10313002;28;20065;-63
2022/02/26 02:19:40;;;;;;;8.68;4.43;;;;;;;5.33;67.39;101642.34;10310203;28;20141;-62
2022/02/26 02:24:41;;;;;;;10.20;4.35;;;;;;;5.32;67.25;101651.19;10313821;28;20577;-62
2022/02/26 02:29:43;;;;;;;10.80;4.55;;;;;;;5.37;66.55;101651.03;10313014;28;20584;-62
2022/02/26 02:34:44;;;;;;;7.38;3.67;;;;;;;5.49;66.56;101669.94;10308854;28;20542;-62
2022/02/26 02:39:46;;;;;;;9.13;4.00;;;;;;;5.42;66.80;101672.81;10314324;28;20129;-62
2022/02/26 02:44:47;;;;;;;13.30;4.32;;;;;;;5.45;66.90;101683.28;10312510;28;20506;-63
2022/02/26 02:49:49;;;;;;;9.27;4.63;;;;;;;5.43;66.79;101693.91;10312995;28;20745;-62
2022/02/26 02:54:50;;;;;;;10.13;4.68;;;;;;;5.46;66.94;101695.56;10315330;28;20056;-61
2022/02/26 02:59:52;;;;;;;8.43;4.88;;;;;;;5.44;66.92;101698.28;10323000;28;20476;-62
2022/02/26 03:04:53;;;;;;;12.40;5.18;;;;;;;5.39;67.03;101694.06;10317374;28;20501;-61
2022/02/26 03:09:55;;;;;;;11.40;5.60;;;;;;;5.42;67.12;101700.13;10323953;28;20054;-60
2022/02/26 03:14:56;;;;;;;10.40;5.97;;;;;;;5.51;67.16;101716.53;10318416;28;20058;-60
2022/02/26 03:19:58;;;;;;;9.93;5.10;;;;;;;5.25;67.24;101723.59;10315311;28;20053;-60
2022/02/26 03:25:04;;;;;;;7.70;4.57;;;;;;;5.12;67.52;101712.63;10316382;28;20058;-62
2022/02/26 03:30:08;;;;;;;8.82;4.43;;;;;;;5.41;66.97;101719.50;10325072;28;20132;-61
2022/02/26 03:35:09;;;;;;;11.02;5.05;;;;;;;5.42;66.53;101728.28;10315689;28;20061;-61
2022/02/26 03:40:12;;;;;;;13.77;4.97;;;;;;;5.38;66.85;101730.19;10316269;28;20164;-64
2022/02/26 03:45:15;;;;;;;8.95;3.88;;;;;;;5.43;66.43;101724.75;10328569;28;20747;-61
2022/02/26 03:50:16;;;;;;;11.23;4.60;;;;;;;5.44;66.66;101729.13;10319277;28;20056;-61
2022/02/26 03:55:18;;;;;;;10.00;4.22;;;;;;;5.22;66.94;101726.34;10318465;28;20497;-60
2022/02/26 04:00:21;;;;;;;11.32;5.40;;;;;;;5.38;66.71;101742.53;10315484;28;20100;-61
2022/02/26 04:05:22;;;;;;;10.48;4.03;;;;;;;5.15;66.99;101738.91;10318267;28;20133;-63
2022/02/26 04:10:23;;;;;;;11.35;4.70;;;;;;;5.07;67.55;101754.13;10317670;28;20736;-62
2022/02/26 04:15:25;;;;;;;9.35;4.10;;;;;;;4.91;67.72;101757.28;10317861;28;20129;-62
2022/02/26 04:20:27;;;;;;;8.77;3.78;;;;;;;4.87;67.53;101744.25;10311366;28;20136;-62
2022/02/26 04:25:28;;;;;;;8.18;3.90;;;;;;;4.76;67.79;101771.84;10317597;28;20073;-62
2022/02/26 04:30:30;;;;;;;9.05;3.80;;;;;;;4.58;68.04;101773.28;10314711;28;20078;-62
2022/02/26 04:35:32;;;;;;;9.30;3.55;;;;;;;4.45;68.56;101777.19;10310633;28;20139;-62
2022/02/26 04:40:33;;;;;;;9.30;4.40;;;;;;;4.39;68.34;101764.22;10317881;28;20140;-63
2022/02/26 04:45:34;;;;;;;9.02;3.60;;;;;;;4.30;68.65;101764.50;10313822;28;20052;-62
2022/02/26 04:50:36;;;;;;;9.88;3.67;;;;;;;4.20;68.94;101785.88;10316409;28;20433;-61
2022/02/26 04:55:37;;;;;;;11.13;3.90;;;;;;;4.13;68.82;101773.75;10317419;28;20136;-61
2022/02/26 05:00:39;;;;;;;13.93;4.53;;;;;;;4.17;68.68;101793.84;10313056;28;20046;-63
2022/02/26 05:05:40;;;;;;;10.88;4.95;;;;;;;3.71;69.84;101782.84;10315656;28;20060;-62
2022/02/26 05:10:43;;;;;;;10.35;3.88;;;;;;;4.11;69.94;101803.69;10315765;28;20053;-62
2022/02/26 05:15:44;;;;;;;9.18;3.97;;;;;;;4.03;70.10;101815.31;10310244;28;20140;-62
2022/02/26 05:20:46;;;;;;;11.48;4.68;;;;;;;4.02;69.10;101810.97;10312306;28;20476;-61
2022/02/26 05:25:47;;;;;;;15.05;4.90;;;;;;;4.17;68.49;101811.44;10309616;28;20631;-62
2022/02/26 05:30:48;;;;;;;10.13;3.53;;;;;;;4.15;68.92;101815.88;10308333;28;20061;-62
2022/02/26 05:35:50;;;;;;;10.25;4.13;;;;;;;4.02;69.74;101818.88;10313382;28;20058;-62
2022/02/26 05:40:51;;;;;;;11.88;4.53;;;;;;;4.01;69.19;101816.28;10313697;28;20050;-62
2022/02/26 05:45:52;;;;;;;11.50;4.15;;;;;;;4.05;68.66;101810.88;10302446;28;20219;-63
2022/02/26 05:50:54;;;;;;;9.80;4.05;;;;;;;4.06;68.85;101825.78;10312751;28;20132;-60
2022/02/26 05:55:56;;;;;;;13.10;5.72;;;;;;;3.99;68.76;101829.47;10316793;28;20105;-61
2022/02/26 06:00:58;;;;;;;10.88;4.68;;;;;;;3.80;69.14;101834.41;10320089;28;20062;-61
2022/02/26 06:06:00;;;;;;;9.45;3.70;;;;;;;3.76;69.18;101822.22;10309210;28;20418;-62
2022/02/26 06:11:01;;;;;;;10.50;3.88;;;;;;;3.72;69.91;101842.53;10305656;28;20060;-61
2022/02/26 06:16:04;;;;;;;11.82;4.38;;;;;;;3.91;69.07;101851.69;10309564;28;20675;-59
2022/02/26 06:21:05;;;;;;;9.48;4.22;;;;;;;3.74;69.33;101850.38;10308525;28;21176;-61
2022/02/26 06:26:07;;;;;;;12.52;4.53;;;;;;;3.85;69.04;101858.00;10309347;28;20051;-61
2022/02/26 06:31:08;;;;;;;9.20;3.88;;;;;;;4.02;68.66;101873.34;10310244;28;20053;-60
2022/02/26 06:36:10;;;;;;;9.80;3.97;;;;;;;3.98;68.21;101858.50;10306547;28;20057;-60
2022/02/26 06:41:11;;;;;;;12.50;4.32;;;;;;;4.12;68.10;101866.91;10310665;28;20097;-59
2022/02/26 06:46:13;;;;;;;10.27;4.20;;;;;;;4.22;68.15;101873.66;10313873;28;20073;-59
2022/02/26 06:51:15;;;;;;;12.27;4.95;;;;;;;4.33;67.37;101872.50;10317061;28;21666;-59
2022/02/26 06:56:17;;;;;;;12.18;5.57;;;;;;;4.17;67.71;101883.44;10315837;28;20526;-60
2022/02/26 07:01:19;;;;;;;11.63;5.35;;;;;;;4.21;68.26;101882.47;10308498;28;20120;-61
2022/02/26 07:06:20;;;;;;;10.77;4.85;;;;;;;4.42;68.04;101885.41;10318680;28;20141;-62
2022/02/26 07:11:22;;;;;;;13.18;5.97;;;;;;;4.67;67.01;101895.22;10316283;28;20073;-59
2022/02/26 07:16:24;;;;;;;14.73;5.55;;;;;;;4.64;67.15;101911.16;10319536;28;20124;-60
2022/02/26 07:21:25;;;;;;;11.70;4.65;;;;;;;4.78;67.16;101901.91;10306320;28;20078;-61
2022/02/26 07:26:28;;;;;;;9.63;5.47;;;;;;;4.99;66.58;101906.63;10332382;28;20531;-61
2022/02/26 07:31:30;;;;;;;8.73;5.15;;;;;;;5.08;66.07;101914.25;10344328;28;20209;-61
2022/02/26 07:36:31;;;;;;;11.15;5.30;;;;;;;5.15;65.86;101923.72;10340191;28;20561;-61
2022/02/26 07:41:33;;;;;;;13.43;5.93;;;;;;;5.32;64.80;101931.09;10342285;28;20060;-59
2022/02/26 07:46:35;;;;;;;14.18;6.10;;;;;;;5.39;64.88;101944.94;10340628;28;20137;-61
2022/02/26 07:51:37;;;;;;;12.38;7.50;;;;;;;5.53;63.98;101937.47;10344246;28;20052;-62
2022/02/26 07:56:39;;;;;;;14.63;7.10;;;;;;;5.69;63.54;101955.44;10347266;28;20588;-61
2022/02/26 08:01:40;;;;;;;14.82;6.93;;;;;;;5.77;63.51;101966.63;10342694;28;20038;-61
2022/02/26 08:06:42;;;;;;;14.88;7.72;;;;;;;5.87;62.45;101949.56;10343027;28;20054;-61
2022/02/26 08:11:43;;;;;;;17.30;9.57;;;;;;;6.08;62.44;101955.03;10351498;28;20049;-63
2022/02/26 08:16:44;;;;;;;12.35;7.47;;;;;;;6.23;61.84;101978.34;10323310;28;20863;-62
2022/02/26 08:21:46;;;;;;;13.57;7.07;;;;;;;6.33;61.60;101984.16;10311398;28;20047;-61
2022/02/26 08:26:52;;;;;;;11.07;6.50;;;;;;;6.60;60.30;101992.03;10305177;28;20053;-63
2022/02/26 08:31:54;;;;;;;12.50;7.40;;;;;;;6.82;59.75;101986.81;10314878;28;20046;-61
2022/02/26 08:36:55;;;;;;;14.25;6.90;;;;;;;6.99;58.47;101981.75;10309317;28;20065;-63
2022/02/26 08:41:57;;;;;;;16.85;6.63;;;;;;;7.13;57.76;101991.84;10312289;28;20161;-62
2022/02/26 08:46:59;;;;;;;10.50;5.43;;;;;;;7.32;57.57;101991.13;10312919;28;20252;-63
2022/02/26 08:52:02;;;;;;;12.52;5.78;;;;;;;7.48;57.62;101997.53;10318374;28;20195;-63
2022/02/26 08:57:04;;;;;;;15.88;6.00;;;;;;;7.66;56.43;101990.63;10303872;28;20061;-61
2022/02/26 09:02:08;;;;;;;11.88;6.10;;;;;;;7.97;55.64;101992.88;10308688;28;20424;-62
2022/02/26 09:07:09;;;;;;;9.33;3.87;;;;;;;8.38;54.24;102010.63;10302254;28;20061;-63
2022/02/26 09:12:11;;;;;;;10.18;3.38;;;;;;;8.66;53.16;102004.13;10302136;28;20232;-62
2022/02/26 09:17:12;;;;;;;13.60;5.60;;;;;;;8.82;52.93;102007.81;10311504;28;20200;-62
2022/02/26 09:22:14;;;;;;;11.13;5.63;;;;;;;9.67;51.73;102021.63;10302838;28;20141;-62
2022/02/26 09:27:15;;;;;;;14.70;4.85;;;;;;;9.91;49.25;102006.25;10302058;28;20058;-61
2022/02/26 09:32:17;;;;;;;9.32;3.92;;;;;;;10.15;48.91;102019.25;10304946;28;20045;-61
2022/02/26 09:37:18;;;;;;;13.38;4.13;;;;;;;10.19;47.82;102016.38;10309517;28;20926;-60
2022/02/26 09:42:22;;;;;;;11.85;3.03;;;;;;;10.24;46.29;102024.13;10304407;28;20129;-61
2022/02/26 09:47:24;;;;;;;6.30;2.80;;;;;;;10.39;47.07;102033.16;10300126;28;20053;-62
2022/02/26 09:52:27;;;;;;;8.85;3.13;;;;;;;10.44;47.06;102020.47;10295270;28;20435;-61
2022/02/26 09:57:29;;;;;;;9.95;3.92;;;;;;;10.26;46.87;102031.06;10303771;28;20083;-61
2022/02/26 10:02:33;;;;;;;13.32;3.67;;;;;;;10.12;48.05;102041.56;10295994;28;20058;-61
2022/02/26 10:07:36;;;;;;;8.63;3.78;;;;;;;10.11;48.17;102039.84;10302722;28;20053;-61
2022/02/26 10:12:38;;;;;;;9.40;3.08;;;;;;;9.90;47.89;102031.13;10305117;28;20489;-62
2022/02/26 10:17:39;;;;;;;8.73;3.60;;;;;;;9.94;47.55;102045.13;10301348;28;20089;-61
2022/02/26 10:22:47;;;;;;;7.63;3.17;;;;;;;9.91;47.56;102055.00;10299525;28;20141;-61
2022/02/26 10:27:53;;;;;;;11.05;3.65;;;;;;;9.43;49.59;102048.44;10311564;28;20061;-62
2022/02/26 10:33:12;;;;;;;10.43;3.78;;;;;;;9.57;49.47;102050.44;10313204;28;20069;-60
2022/02/26 10:38:20;;;;;;;7.95;3.35;;;;;;;11.37;45.48;102036.84;10308389;28;20402;-61
2022/02/26 10:43:40;;;;;;;9.50;3.40;;;;;;;12.25;41.53;102039.84;10303591;28;20122;-61
2022/02/26 10:48:43;;;;;;;9.65;3.08;;;;;;;13.91;37.65;102025.97;10306277;28;20694;-61
2022/02/26 10:53:46;;;;;;;8.13;1.80;;;;;;;15.52;33.44;102029.09;10302045;28;20333;-61
2022/02/26 10:58:47;;;;;;;6.47;2.25;;;;;;;15.36;33.11;102021.31;10309343;28;20190;-60
2022/02/26 11:03:53;;;;;;;7.93;2.22;;;;;;;18.41;28.41;102009.03;10313190;28;20049;-61
2022/02/26 11:08:55;;;;;;;9.05;2.28;;;;;;;21.28;23.74;102015.19;10302505;28;20421;-60
2022/02/26 11:13:59;;;;;;;6.13;1.60;;;;;;;20.35;25.11;102005.09;10307167;28;20140;-63
2022/02/26 11:19:05;;;;;;;8.02;2.10;;;;;;;25.69;19.66;102003.16;10312875;28;20294;-62
2022/02/26 11:24:07;;;;;;;7.70;2.33;;;;;;;28.20;17.38;102004.25;10299217;28;20058;-63
2022/02/26 11:29:10;;;;;;;5.85;1.88;;;;;;;25.48;19.28;101997.50;10309339;28;20181;-63
2022/02/26 11:34:12;;;;;;;3.85;2.03;;;;;;;23.29;21.41;101995.56;10311214;28;20057;-63
2022/02/26 11:39:31;;;;;;;8.80;2.23;;;;;;;26.31;18.30;101981.34;10316333;28;20061;-63
2022/02/26 11:44:39;;;;;;;6.15;2.20;;;;;;;27.87;16.98;101974.69;10310396;28;20065;-63
2022/02/26 11:50:00;;;;;;;10.43;4.78;;;;;;;24.10;20.04;101979.56;10311907;28;20184;-62
2022/02/26 11:55:18;;;;;;;8.40;3.13;;;;;;;29.05;15.72;101967.66;10309469;28;20169;-60
2022/02/26 12:00:23;;;;;;;6.25;2.42;;;;;;;31.48;13.92;101968.06;10286021;28;20110;-61
2022/02/26 12:05:24;;;;;;;6.65;2.10;;;;;;;30.92;13.65;101947.63;10306979;28;20057;-62
2022/02/26 12:10:27;;;;;;;;;;;;;;;25.27;18.76;101957.25;10320762;28;20555;-62
2022/02/26 12:15:32;;;;;;;6.28;2.85;;;;;;;30.17;14.05;101953.53;10314091;28;19980;-61
2022/02/26 12:20:36;;;;;;;6.18;2.90;;;;;;;25.75;17.60;101949.78;10317281;28;20057;-61
2022/02/26 12:25:42;;;;;;;7.88;2.75;;;;;;;30.31;14.11;101928.56;10309243;28;20089;-63
2022/02/26 12:30:51;;;;;;;9.10;2.35;;;;;;;32.24;13.01;101927.66;10320606;28;20064;-61
2022/02/26 12:36:18;;;;;;;5.95;2.30;;;;;;;33.18;12.10;101923.75;10316256;28;20132;-61
2022/02/26 12:41:27;;;;;;;7.55;2.58;;;;;;;29.82;14.01;101916.19;10316374;28;20145;-65
2022/02/26 12:46:31;;;;;;;6.60;2.22;;;;;;;26.06;17.69;101916.97;10313273;28;20143;-63
2022/02/26 12:51:33;;;;;;;5.90;2.03;;;;;;;27.67;15.62;101914.34;10324195;28;20057;-60
2022/02/26 12:56:39;;;;;;;8.35;2.78;;;;;;;23.96;19.15;101905.78;10322378;28;20049;-60
2022/02/26 13:01:48;;;;;;;8.25;2.53;;;;;;;25.33;18.57;101896.59;10308752;28;20790;-62
2022/02/26 13:06:53;;;;;;;8.18;2.72;;;;;;;30.59;13.72;101897.22;10300324;28;20837;-63
2022/02/26 13:11:58;;;;;;;5.07;2.47;;;;;;;32.40;11.85;101880.22;10307813;28;20073;-62
2022/02/26 13:17:02;;;;;;;6.38;2.08;;;;;;;34.35;11.33;101869.75;10305369;28;20062;-63
2022/02/26 13:22:04;;;;;;;7.00;2.35;;;;;;;34.29;10.81;101860.50;10311621;28;20501;-62
2022/02/26 13:27:07;;;;;;;7.18;2.00;;;;;;;33.59;10.83;101864.94;10310974;28;20056;-62
2022/02/26 13:32:24;;;;;;;7.53;2.10;;;;;;;33.85;11.04;101854.53;10335627;28;20806;-62
2022/02/26 13:37:30;;;;;;;5.68;1.98;;;;;;;33.54;10.94;101862.06;10333857;28;20053;-62
2022/02/26 13:42:37;;;;;;;4.82;1.73;;;;;;;31.88;12.17;101850.25;10329986;28;20206;-62
2022/02/26 13:47:40;;;;;;;6.63;2.72;;;;;;;24.05;18.37;101854.09;10332920;28;20068;-64
2022/02/26 13:52:52;;;;;;;7.88;2.20;;;;;;;24.28;18.86;101863.19;10335615;28;20064;-63
2022/02/26 13:57:56;;;;;;;5.57;2.10;;;;;;;23.87;18.61;101847.00;10336783;28;20320;-63
2022/02/26 14:03:00;;;;;;;5.28;1.80;;;;;;;28.91;14.80;101841.56;10334004;28;20053;-61
2022/02/26 14:08:10;;;;;;;4.57;1.75;;;;;;;30.97;13.37;101827.69;10334118;28;20119;-63
2022/02/26 14:13:14;;;;;;;7.97;2.03;;;;;;;32.41;12.18;101826.81;10333124;28;20602;-63
2022/02/26 14:18:23;;;;;;;5.97;1.50;;;;;;;32.29;12.04;101817.63;10333467;28;20616;-63
2022/02/26 14:23:24;;;;;;;5.90;1.73;;;;;;;32.25;11.54;101816.41;10332451;28;20064;-61
2022/02/26 14:28:27;;;;;;;6.72;1.83;;;;;;;31.83;11.57;101810.72;10332207;28;20046;-63
2022/02/26 14:33:28;;;;;;;4.88;1.63;;;;;;;32.76;11.49;101806.84;10331104;28;20058;-64
2022/02/26 14:38:29;;;;;;;4.60;1.42;;;;;;;32.18;12.15;101799.94;10329554;28;20065;-61
2022/02/26 14:43:31;;;;;;;5.93;1.85;;;;;;;31.19;12.23;101805.34;10325232;28;20142;-62
2022/02/26 14:48:32;;;;;;;4.25;1.88;;;;;;;25.11;16.59;101790.09;10328275;28;20058;-62
2022/02/26 14:53:34;;;;;;;9.43;2.13;;;;;;;21.02;21.18;101805.59;10342664;28;20312;-61
2022/02/26 14:58:35;;;;;;;7.15;2.63;;;;;;;18.86;23.80;101777.56;10339724;28;20068;-61
2022/02/26 15:03:36;;;;;;;4.65;1.50;;;;;;;17.41;26.09;101773.25;10338177;28;20053;-61
2022/02/26 15:08:38;;;;;;;9.98;3.03;;;;;;;16.16;27.93;101783.53;10340261;28;20045;-60
2022/02/26 15:13:40;;;;;;;6.45;2.38;;;;;;;15.35;29.76;101778.97;10333427;28;23025;-62
2022/02/26 15:18:42;;;;;;;7.00;2.17;;;;;;;14.78;30.93;101793.97;10334590;28;20064;-62
2022/02/26 15:23:44;;;;;;;4.45;1.88;;;;;;;14.31;31.32;101792.91;10351593;28;20199;-62
2022/02/26 15:28:46;;;;;;;6.68;1.92;;;;;;;13.93;32.47;101785.78;10333821;28;20072;-63
2022/02/26 15:33:47;;;;;;;6.28;2.10;;;;;;;13.40;33.15;101768.00;10337984;28;20050;-64
2022/02/26 15:38:49;;;;;;;8.00;2.10;;;;;;;13.19;33.38;101774.78;10334180;28;20053;-65
2022/02/26 15:43:50;;;;;;;3.20;1.20;;;;;;;12.87;34.28;101764.44;10336012;28;20061;-62
2022/02/26 15:48:52;;;;;;;8.60;2.35;;;;;;;12.34;35.68;101757.13;10338259;28;20045;-62
2022/02/26 15:53:55;;;;;;;7.90;2.05;;;;;;;12.32;35.27;101759.03;10334712;28;20069;-61
2022/02/26 15:58:56;;;;;;;5.65;2.38;;;;;;;12.09;36.00;101757.84;10334440;28;20614;-62
2022/02/26 16:03:59;;;;;;;7.78;2.20;;;;;;;11.93;35.89;101749.91;10332790;28;20050;-61
2022/02/26 16:09:01;;;;;;;4.35;1.63;;;;;;;11.78;36.63;101772.19;10336667;28;20053;-61
2022/02/26 16:14:02;;;;;;;7.28;2.00;;;;;;;11.65;36.79;101774.75;10338199;28;20842;-60
2022/02/26 16:19:04;;;;;;;6.32;1.73;;;;;;;11.54;36.88;101767.38;10334903;28;20062;-61
2022/02/26 16:24:06;;;;;;;7.72;2.55;;;;;;;11.40;37.77;101764.72;10333170;28;20068;-62
2022/02/26 16:29:07;;;;;;;6.57;2.60;;;;;;;11.16;37.87;101762.56;10333586;28;20057;-62
2022/02/26 16:34:09;;;;;;;8.43;3.63;;;;;;;10.95;38.30;101759.34;10298553;28;1045060;-61
2022/02/26 16:39:10;;;;;;;7.13;3.42;;;;;;;10.89;38.99;101765.88;10334830;28;20084;-62
2022/02/26 16:44:12;;;;;;;10.05;2.55;;;;;;;10.77;38.81;101777.25;10341174;28;20057;-61
2022/02/26 16:49:13;;;;;;;6.05;2.78;;;;;;;10.47;39.49;101767.38;10335671;28;20095;-62
2022/02/26 16:54:14;;;;;;;7.95;2.50;;;;;;;10.30;39.71;101780.72;10334516;28;21671;-62
2022/02/26 16:59:16;;;;;;;7.00;2.45;;;;;;;10.19;40.00;101800.81;10333822;28;20054;-62
2022/02/26 17:04:18;;;;;;;6.57;2.65;;;;;;;9.96;40.84;101796.72;10335011;28;20057;-62
2022/02/26 17:09:19;;;;;;;11.90;4.85;;;;;;;9.87;41.17;101803.38;10345050;28;20079;-62
2022/02/26 17:14:20;;;;;;;9.55;4.60;;;;;;;9.84;41.14;101808.88;10337574;28;20064;-61
2022/02/26 17:19:22;;;;;;;8.77;4.22;;;;;;;9.69;41.58;101810.53;10334329;28;20057;-62
2022/02/26 17:24:23;;;;;;;9.20;3.83;;;;;;;9.66;41.83;101815.16;10335713;28;20084;-62
2022/02/26 17:29:25;;;;;;;7.18;3.90;;;;;;;9.48;42.34;101801.84;10306110;28;20213;-62
2022/02/26 17:34:28;;;;;;;11.25;5.38;;;;;;;9.54;42.80;101822.81;10303689;28;20463;-63
2022/02/26 17:39:36;;;;;;;12.05;7.50;;;;;;;9.53;42.34;101825.53;10332070;28;20068;-62
2022/02/26 17:44:38;;;;;;;26.65;16.75;;;;;;;9.53;42.74;101830.84;10330240;28;20320;-62
2022/02/26 17:49:40;;;;;;;33.70;23.20;;;;;;;9.47;42.87;101829.41;10329475;28;20114;-62
2022/02/26 17:54:41;;;;;;;25.40;16.90;;;;;;;9.18;43.38;101798.97;10329262;28;20664;-62
2022/02/26 17:59:43;;;;;;;26.02;13.75;;;;;;;9.36;43.87;101834.38;10326531;28;20389;-61
2022/02/26 18:04:45;;;;;;;18.55;7.28;;;;;;;9.38;44.68;101828.06;10330422;28;20089;-62
2022/02/26 18:09:47;;;;;;;10.45;3.90;;;;;;;9.33;45.21;101824.75;10330789;28;20061;-62
2022/02/26 18:14:49;;;;;;;14.48;5.65;;;;;;;9.21;45.03;101820.06;10310333;28;20084;-62
2022/02/26 18:19:51;;;;;;;9.98;4.47;;;;;;;9.15;45.17;101813.25;10304691;28;21338;-61
2022/02/26 18:24:53;;;;;;;12.85;3.47;;;;;;;8.93;45.22;101810.81;10299174;28;20054;-61
2022/02/26 18:29:54;;;;;;;7.93;3.95;;;;;;;8.98;45.65;101819.41;10311097;28;20099;-61
2022/02/26 18:34:56;;;;;;;7.20;2.80;;;;;;;8.93;46.18;101824.09;10305786;28;20058;-61
2022/02/26 18:39:57;;;;;;;9.93;3.78;;;;;;;8.83;46.09;101831.63;10309094;28;20567;-63
2022/02/26 18:44:59;;;;;;;9.75;3.60;;;;;;;8.72;46.14;101827.75;10304684;28;20058;-61
2022/02/26 18:50:04;;;;;;;8.65;4.05;;;;;;;8.70;45.64;101830.50;10326101;28;20053;-63
2022/02/26 18:55:07;;;;;;;12.00;5.95;;;;;;;8.77;46.55;101834.56;10326308;28;20060;-63
2022/02/26 19:00:12;;;;;;;13.43;6.50;;;;;;;8.59;46.28;101806.25;10325504;28;20071;-63
2022/02/26 19:05:13;;;;;;;12.90;6.07;;;;;;;8.61;46.16;101820.31;10333002;28;20179;-61
2022/02/26 19:10:16;;;;;;;13.05;6.07;;;;;;;8.67;45.91;101826.19;10331439;28;20111;-60
2022/02/26 19:15:20;;;;;;;;;;;;;;;8.62;46.00;101841.47;10332623;28;20053;-61
2022/02/26 19:20:22;;;;;;;9.73;5.32;;;;;;;8.64;46.65;101841.41;10335913;28;19951;-61
2022/02/26 19:25:24;;;;;;;15.75;6.47;;;;;;;8.59;46.41;101822.19;10342058;28;20073;-62
2022/02/26 19:30:25;;;;;;;11.43;6.22;;;;;;;8.53;46.78;101828.63;10332246;28;20156;-62
2022/02/26 19:35:27;;;;;;;13.52;6.97;;;;;;;8.22;47.91;101811.44;10334114;28;20394;-62
2022/02/26 19:40:28;;;;;;;14.20;7.45;;;;;;;8.37;48.37;101832.91;10340688;28;20061;-62
2022/02/26 19:45:30;;;;;;;14.50;7.32;;;;;;;8.36;48.30;101826.75;10340568;28;20056;-61
2022/02/26 19:50:32;;;;;;;14.23;9.40;;;;;;;8.37;48.55;101824.94;10337322;28;20071;-63
2022/02/26 19:55:33;;;;;;;17.55;8.50;;;;;;;8.27;48.61;101816.53;10341098;28;20757;-62
2022/02/26 20:00:35;;;;;;;14.00;8.02;;;;;;;8.34;48.48;101814.47;10340407;28;20139;-61
2022/02/26 20:05:36;;;;;;;15.15;8.65;;;;;;;8.37;47.98;101817.81;10340559;28;20559;-61
2022/02/26 20:10:38;;;;;;;14.07;6.93;;;;;;;8.34;48.07;101825.09;10340408;28;20067;-62
2022/02/26 20:15:40;;;;;;;12.85;7.75;;;;;;;8.30;47.95;101822.56;10340732;28;20050;-60
2022/02/26 20:20:41;;;;;;;12.35;6.95;;;;;;;8.22;48.23;101823.84;10337571;28;20886;-60
2022/02/26 20:25:42;;;;;;;13.45;6.80;;;;;;;8.16;48.32;101805.56;10337040;28;20045;-62
2022/02/26 20:30:44;;;;;;;14.20;9.55;;;;;;;8.21;48.51;101817.69;10342329;28;20195;-61
2022/02/26 20:35:46;;;;;;;17.98;11.48;;;;;;;8.25;48.14;101823.72;10343644;28;20057;-62
2022/02/26 20:40:48;;;;;;;15.57;9.98;;;;;;;8.07;48.40;101820.94;10340795;28;20100;-61
2022/02/26 20:45:50;;;;;;;17.70;10.70;;;;;;;8.04;48.46;101830.84;10344363;28;20069;-61
2022/02/26 20:50:51;;;;;;;18.08;9.90;;;;;;;7.93;49.17;101833.97;10339416;28;20492;-61
2022/02/26 20:55:53;;;;;;;13.82;10.40;;;;;;;7.91;49.34;101828.75;10342099;28;20064;-62
2022/02/26 21:00:54;;;;;;;17.13;8.55;;;;;;;7.93;49.26;101828.69;10344148;28;20049;-61
2022/02/26 21:05:56;;;;;;;14.05;7.47;;;;;;;7.74;49.83;101810.06;10342880;28;20058;-61
2022/02/26 21:10:58;;;;;;;11.95;6.90;;;;;;;7.61;50.25;101812.38;10343094;28;20109;-61
2022/02/26 21:16:01;;;;;;;13.25;8.50;;;;;;;7.50;50.39;101815.47;10340940;28;20131;-62
2022/02/26 21:21:04;;;;;;;13.63;7.47;;;;;;;7.47;50.82;101828.00;10338057;28;20054;-62
2022/02/26 21:26:09;;;;;;;13.13;7.60;;;;;;;7.32;50.87;101798.56;10336802;28;20049;-61
2022/02/26 21:31:11;;;;;;;14.55;7.70;;;;;;;7.33;51.35;101818.84;10333408;28;20677;-62
2022/02/26 21:36:12;;;;;;;12.43;7.43;;;;;;;7.29;51.27;101814.59;10337330;28;20606;-61
2022/02/26 21:41:14;;;;;;;13.40;6.97;;;;;;;7.07;51.79;101810.22;10344298;28;20633;-60
2022/02/26 21:46:15;;;;;;;13.95;7.20;;;;;;;7.14;51.87;101810.81;10337240;28;20130;-61
2022/02/26 21:51:17;;;;;;;15.10;7.13;;;;;;;7.23;52.14;101813.06;10336437;28;20058;-60
2022/02/26 21:56:18;;;;;;;13.38;7.57;;;;;;;7.21;52.29;101795.53;10335518;28;20053;-60
2022/02/26 22:01:20;;;;;;;11.82;7.43;;;;;;;7.30;52.14;101808.38;10337254;28;20049;-61
2022/02/26 22:06:22;;;;;;;11.02;8.05;;;;;;;7.22;52.17;101805.19;10331416;28;20049;-61
2022/02/26 22:11:24;;;;;;;12.35;9.40;;;;;;;7.18;52.40;101790.38;10337628;28;20507;-61
2022/02/26 22:16:25;;;;;;;12.38;6.72;;;;;;;7.28;52.48;101814.66;10332087;28;20071;-61
2022/02/26 22:21:27;;;;;;;10.73;6.53;;;;;;;7.20;52.33;101797.31;10334902;28;20125;-62
2022/02/26 22:26:29;;;;;;;17.55;8.32;;;;;;;7.20;52.56;101799.09;10337795;28;20059;-61
2022/02/26 22:31:30;;;;;;;15.18;8.40;;;;;;;7.19;53.06;101810.59;10334283;28;20057;-62
2022/02/26 22:36:34;;;;;;;17.95;9.65;;;;;;;7.10;53.64;101801.28;10336357;28;20053;-61
2022/02/26 22:41:37;;;;;;;14.55;8.30;;;;;;;7.17;53.42;101812.47;10338500;28;20056;-61
2022/02/26 22:46:38;;;;;;;12.23;6.93;;;;;;;6.99;53.78;101817.59;10334220;28;20576;-61
2022/02/26 22:51:40;;;;;;;17.50;8.32;;;;;;;6.79;54.53;101823.69;10334654;28;20064;-61
2022/02/26 22:56:41;;;;;;;14.57;8.75;;;;;;;6.79;55.04;101801.66;10337680;28;20061;-60
2022/02/26 23:01:43;;;;;;;13.02;8.35;;;;;;;6.62;55.43;101800.53;10337851;28;20060;-60
2022/02/26 23:06:44;;;;;;;13.32;8.05;;;;;;;6.63;55.87;101807.53;10338346;28;20054;-60
2022/02/26 23:11:46;;;;;;;11.88;7.70;;;;;;;6.42;56.51;101819.81;10339235;28;20061;-61
2022/02/26 23:16:47;;;;;;;12.15;7.70;;;;;;;6.15;57.66;101812.00;10342576;28;20134;-61
2022/02/26 23:21:49;;;;;;;13.40;8.38;;;;;;;6.12;57.86;101811.25;10340875;28;20064;-62